createdAt,value
2017-10-15T00:01:11.665Z,9.10
2017-10-15T00:03:39.235Z,9.10
2017-10-15T00:06:06.142Z,9.10
2017-10-15T00:08:32.743Z,9.10
2017-10-15T00:10:59.789Z,9.00
2017-10-15T00:13:27.725Z,9.00
2017-10-15T00:15:55.876Z,9.00
2017-10-15T00:18:22.342Z,9.00
2017-10-15T00:20:49.439Z,9.00
2017-10-15T00:23:15.948Z,9.00
2017-10-15T00:25:42.322Z,9.00
2017-10-15T00:28:08.661Z,9.00
2017-10-15T00:30:36.447Z,8.90
2017-10-15T00:33:02.777Z,8.90
2017-10-15T00:35:30.386Z,8.90
2017-10-15T00:37:58.562Z,8.90
2017-10-15T00:40:26.445Z,9.00
2017-10-15T00:42:52.947Z,8.90
2017-10-15T00:45:19.286Z,8.90
2017-10-15T00:47:45.595Z,8.90
2017-10-15T00:50:11.928Z,8.90
2017-10-15T00:52:38.387Z,8.90
2017-10-15T00:55:04.916Z,8.80
2017-10-15T00:57:32.623Z,8.80
2017-10-15T00:59:59.156Z,8.80
2017-10-15T01:02:25.933Z,8.80
2017-10-15T01:04:53.324Z,8.70
2017-10-15T01:07:20.561Z,8.70
2017-10-15T01:09:46.867Z,8.70
2017-10-15T01:12:13.215Z,8.80
2017-10-15T01:14:41.149Z,8.70
2017-10-15T01:17:08.353Z,8.70
2017-10-15T01:19:34.697Z,8.70
2017-10-15T01:22:01.426Z,8.70
2017-10-15T01:24:27.848Z,8.70
2017-10-15T01:26:54.292Z,8.60
2017-10-15T01:29:20.632Z,8.50
2017-10-15T01:31:47.880Z,8.60
2017-10-15T01:34:14.221Z,8.50
2017-10-15T01:36:40.540Z,8.60
2017-10-15T01:39:08.484Z,8.60
2017-10-15T01:41:35.034Z,8.60
2017-10-15T01:44:02.258Z,8.60
2017-10-15T01:46:28.730Z,8.60
2017-10-15T01:48:56.573Z,8.60
2017-10-15T01:51:24.425Z,8.50
2017-10-15T01:53:51.420Z,8.50
2017-10-15T01:56:17.762Z,8.50
2017-10-15T01:58:44.052Z,8.50
2017-10-15T02:01:10.462Z,8.50
2017-10-15T02:03:38.288Z,8.50
2017-10-15T02:06:04.951Z,8.50
2017-10-15T02:08:31.255Z,8.50
2017-10-15T02:10:57.600Z,8.50
2017-10-15T02:13:25.204Z,8.50
2017-10-15T02:15:52.946Z,8.50
2017-10-15T02:18:19.585Z,8.40
2017-10-15T02:20:47.569Z,8.40
2017-10-15T02:23:14.402Z,8.40
2017-10-15T02:25:40.830Z,8.40
2017-10-15T02:28:07.883Z,8.40
2017-10-15T02:30:35.854Z,8.40
2017-10-15T02:33:02.293Z,8.40
2017-10-15T02:35:29.385Z,8.30
2017-10-15T02:37:57.240Z,8.30
2017-10-15T02:40:25.347Z,8.30
2017-10-15T02:42:51.820Z,8.30
2017-10-15T02:45:18.153Z,8.30
2017-10-15T02:47:44.483Z,8.30
2017-10-15T02:50:10.800Z,8.30
2017-10-15T02:52:38.736Z,8.30
2017-10-15T02:55:05.242Z,8.20
2017-10-15T02:57:33.127Z,8.20
2017-10-15T02:59:59.587Z,8.20
2017-10-15T03:02:34.220Z,8.20
2017-10-15T03:05:00.505Z,8.20
2017-10-15T03:07:26.800Z,8.20
2017-10-15T03:09:53.111Z,8.10
2017-10-15T03:12:20.217Z,8.20
2017-10-15T03:14:46.539Z,8.10
2017-10-15T03:17:12.862Z,8.10
2017-10-15T03:19:40.318Z,8.10
2017-10-15T03:22:06.615Z,8.10
2017-10-15T03:24:35.932Z,8.10
2017-10-15T03:27:03.277Z,8.10
2017-10-15T03:29:30.676Z,8.10
2017-10-15T03:31:59.055Z,8.00
2017-10-15T03:34:25.580Z,8.00
2017-10-15T03:36:52.727Z,8.00
2017-10-15T03:42:13.141Z,7.90
2017-10-15T03:44:39.428Z,7.90
2017-10-15T03:47:07.186Z,7.90
2017-10-15T03:49:33.623Z,7.90
2017-10-15T03:52:01.112Z,7.80
2017-10-15T03:54:27.863Z,7.80
2017-10-15T03:56:54.171Z,7.80
2017-10-15T03:59:21.555Z,7.80
2017-10-15T04:01:48.104Z,7.80
2017-10-15T04:04:15.562Z,7.80
2017-10-15T04:06:44.269Z,7.80
2017-10-15T04:09:11.970Z,7.80
2017-10-15T04:11:39.871Z,7.80
2017-10-15T04:14:06.373Z,7.80
2017-10-15T04:16:33.402Z,7.80
2017-10-15T04:19:00.964Z,7.80
2017-10-15T04:21:27.797Z,7.80
2017-10-15T04:23:54.375Z,7.80
2017-10-15T04:26:20.755Z,7.80
2017-10-15T04:28:47.049Z,7.80
2017-10-15T04:31:13.354Z,7.80
2017-10-15T04:33:41.140Z,7.80
2017-10-15T04:36:07.610Z,7.80
2017-10-15T04:38:35.114Z,7.70
2017-10-15T04:41:01.593Z,7.70
2017-10-15T04:43:29.161Z,7.70
2017-10-15T04:45:55.616Z,7.70
2017-10-15T04:48:22.637Z,7.70
2017-10-15T04:50:48.941Z,7.70
2017-10-15T04:53:15.228Z,7.70
2017-10-15T04:55:43.559Z,7.70
2017-10-15T04:58:11.518Z,7.70
2017-10-15T05:00:38.399Z,7.70
2017-10-15T05:03:05.426Z,7.80
2017-10-15T05:05:31.755Z,7.80
2017-10-15T05:07:59.404Z,7.80
2017-10-15T05:10:27.394Z,7.80
2017-10-15T05:12:55.100Z,7.70
2017-10-15T05:15:21.601Z,7.70
2017-10-15T05:17:48.613Z,7.60
2017-10-15T05:20:16.036Z,7.60
2017-10-15T05:22:43.250Z,7.60
2017-10-15T05:25:12.087Z,7.50
2017-10-15T05:27:39.964Z,7.50
2017-10-15T05:30:06.372Z,7.50
2017-10-15T05:32:35.850Z,7.50
2017-10-15T05:35:02.304Z,7.50
2017-10-15T05:37:28.647Z,7.50
2017-10-15T05:39:54.970Z,7.50
2017-10-15T05:42:21.335Z,7.50
2017-10-15T05:44:49.788Z,7.50
2017-10-15T05:47:17.313Z,7.50
2017-10-15T05:49:44.198Z,7.50
2017-10-15T05:52:10.537Z,7.50
2017-10-15T05:54:37.920Z,7.50
2017-10-15T05:57:05.467Z,7.50
2017-10-15T05:59:31.954Z,7.50
2017-10-15T06:01:59.176Z,7.60
2017-10-15T06:07:25.665Z,7.80
2017-10-15T06:09:52.020Z,7.90
2017-10-15T06:12:18.369Z,8.00
2017-10-15T06:14:44.716Z,8.00
2017-10-15T06:17:11.107Z,8.00
2017-10-15T06:19:38.439Z,8.00
2017-10-15T06:22:04.738Z,8.00
2017-10-15T06:24:30.998Z,8.00
2017-10-15T06:26:57.335Z,8.00
2017-10-15T06:29:23.650Z,7.90
2017-10-15T06:31:50.055Z,7.90
2017-10-15T06:34:16.469Z,8.00
2017-10-15T06:36:42.781Z,8.00
2017-10-15T06:39:09.895Z,8.00
2017-10-15T06:41:36.763Z,8.00
2017-10-15T06:44:03.801Z,8.20
2017-10-15T06:46:30.261Z,8.20
2017-10-15T06:48:56.643Z,8.30
2017-10-15T06:51:23.083Z,8.50
2017-10-15T06:53:49.469Z,8.60
2017-10-15T06:56:15.775Z,8.70
2017-10-15T06:58:42.116Z,8.80
2017-10-15T07:01:08.476Z,8.90
2017-10-15T07:03:34.806Z,9.00
2017-10-15T07:06:01.113Z,9.10
2017-10-15T07:08:27.435Z,9.20
2017-10-15T07:10:53.764Z,9.30
2017-10-15T07:13:20.076Z,9.40
2017-10-15T07:15:46.395Z,9.40
2017-10-15T07:18:13.485Z,9.60
2017-10-15T07:20:39.770Z,9.60
2017-10-15T07:23:06.784Z,9.80
2017-10-15T07:25:33.084Z,9.80
2017-10-15T07:27:59.418Z,10.00
2017-10-15T07:30:25.719Z,10.10
2017-10-15T07:32:52.038Z,10.20
2017-10-15T07:35:18.337Z,10.30
2017-10-15T07:40:18.445Z,10.90
2017-10-15T07:42:44.785Z,10.90
2017-10-15T07:45:11.090Z,11.00
2017-10-15T07:47:37.402Z,11.10
2017-10-15T07:50:03.771Z,11.20
2017-10-15T07:52:30.108Z,11.20
2017-10-15T07:54:56.473Z,11.40
2017-10-15T07:57:22.767Z,11.50
2017-10-15T07:59:49.091Z,11.70
2017-10-15T08:02:15.423Z,11.90
2017-10-15T08:04:41.720Z,12.00
2017-10-15T08:07:08.024Z,12.10
2017-10-15T08:09:35.064Z,12.00
2017-10-15T08:12:01.391Z,12.00
2017-10-15T08:14:27.679Z,12.00
2017-10-15T08:16:53.984Z,11.90
2017-10-15T08:19:20.308Z,11.90
2017-10-15T08:21:46.613Z,12.00
2017-10-15T08:24:12.941Z,12.20
2017-10-15T08:26:39.240Z,12.50
2017-10-15T08:29:06.291Z,12.90
2017-10-15T08:31:32.562Z,13.00
2017-10-15T08:33:58.805Z,13.10
2017-10-15T08:36:25.086Z,13.30
2017-10-15T08:38:51.454Z,13.40
2017-10-15T08:41:17.757Z,13.50
2017-10-15T08:43:44.059Z,13.60
2017-10-15T08:46:10.676Z,13.70
2017-10-15T08:48:36.947Z,13.80
2017-10-15T08:51:03.248Z,13.90
2017-10-15T08:53:30.313Z,14.10
2017-10-15T08:55:56.615Z,14.10
2017-10-15T08:58:22.928Z,14.30
2017-10-15T09:00:49.287Z,14.40
2017-10-15T09:03:16.726Z,14.80
2017-10-15T09:05:43.054Z,14.80
2017-10-15T09:08:09.416Z,15.00
2017-10-15T09:10:35.730Z,15.20
2017-10-15T09:13:02.808Z,15.50
2017-10-15T09:15:29.074Z,15.40
2017-10-15T09:17:55.373Z,15.50
2017-10-15T09:20:21.635Z,15.50
2017-10-15T09:22:48.730Z,15.60
2017-10-15T09:25:15.007Z,15.60
2017-10-15T09:27:42.063Z,15.50
2017-10-15T09:30:08.354Z,15.50
2017-10-15T09:32:34.701Z,15.50
2017-10-15T09:35:01.031Z,15.60
2017-10-15T09:37:27.327Z,15.70
2017-10-15T09:39:53.632Z,15.90
2017-10-15T09:42:19.966Z,16.00
2017-10-15T09:44:46.370Z,16.20
2017-10-15T09:47:12.682Z,16.30
2017-10-15T09:49:38.984Z,16.50
2017-10-15T09:52:05.283Z,16.70
2017-10-15T09:54:31.558Z,16.90
2017-10-15T09:56:57.856Z,17.10
2017-10-15T09:59:24.198Z,17.30
2017-10-15T10:01:50.506Z,17.60
2017-10-15T10:04:17.709Z,17.80
2017-10-15T10:06:44.051Z,18.00
2017-10-15T10:09:11.066Z,18.30
2017-10-15T10:11:37.381Z,18.20
2017-10-15T10:14:03.666Z,18.30
2017-10-15T10:16:29.971Z,18.40
2017-10-15T10:18:57.071Z,18.60
2017-10-15T10:21:23.511Z,18.60
2017-10-15T10:23:49.848Z,18.80
2017-10-15T10:26:16.161Z,18.90
2017-10-15T10:28:42.434Z,19.00
2017-10-15T10:31:08.741Z,19.10
2017-10-15T10:33:35.039Z,19.30
2017-10-15T10:36:01.386Z,19.40
2017-10-15T10:38:27.709Z,19.50
2017-10-15T10:40:54.010Z,19.60
2017-10-15T10:43:20.351Z,19.60
2017-10-15T10:45:46.666Z,19.60
2017-10-15T10:48:12.999Z,19.60
2017-10-15T10:50:39.298Z,19.50
2017-10-15T10:53:06.333Z,19.50
2017-10-15T10:55:36.099Z,19.50
2017-10-15T10:58:02.395Z,19.60
2017-10-15T11:00:29.514Z,20.00
2017-10-15T11:02:55.816Z,20.00
2017-10-15T11:05:22.173Z,20.20
2017-10-15T11:07:54.850Z,20.70
2017-10-15T11:10:21.225Z,20.70
2017-10-15T11:12:47.530Z,20.90
2017-10-15T11:15:14.256Z,21.10
2017-10-15T11:17:41.237Z,21.30
2017-10-15T11:20:09.524Z,21.50
2017-10-15T11:22:37.617Z,21.70
2017-10-15T11:25:03.928Z,21.90
2017-10-15T11:27:30.232Z,22.00
2017-10-15T11:29:56.539Z,22.10
2017-10-15T11:32:23.551Z,22.30
2017-10-15T11:34:49.872Z,22.30
2017-10-15T11:37:16.172Z,22.30
2017-10-15T11:39:42.505Z,22.40
2017-10-15T11:42:08.795Z,22.40
2017-10-15T11:44:35.848Z,22.40
2017-10-15T11:47:02.881Z,22.60
2017-10-15T11:49:29.966Z,22.60
2017-10-15T11:51:56.971Z,22.70
2017-10-15T11:54:24.004Z,22.80
2017-10-15T11:56:50.293Z,22.70
2017-10-15T11:59:16.564Z,22.80
2017-10-15T12:01:42.840Z,22.90
2017-10-15T12:04:09.114Z,23.00
2017-10-15T12:06:35.683Z,23.00
2017-10-15T12:09:02.005Z,23.10
2017-10-15T12:11:29.019Z,23.20
2017-10-15T12:13:55.412Z,23.10
2017-10-15T12:16:21.733Z,23.20
2017-10-15T12:18:48.121Z,23.30
2017-10-15T12:21:14.410Z,23.40
2017-10-15T12:23:40.680Z,23.50
2017-10-15T12:26:06.968Z,23.60
2017-10-15T12:28:33.576Z,23.60
2017-10-15T12:30:59.879Z,23.70
2017-10-15T12:33:26.913Z,23.80
2017-10-15T12:35:53.240Z,23.70
2017-10-15T12:38:19.530Z,23.70
2017-10-15T12:40:45.833Z,23.60
2017-10-15T12:43:12.101Z,23.60
2017-10-15T12:45:38.387Z,23.60
2017-10-15T12:48:04.700Z,23.70
2017-10-15T12:50:31.767Z,23.70
2017-10-15T12:52:58.061Z,23.70
2017-10-15T12:55:25.106Z,23.80
2017-10-15T12:57:51.432Z,23.80
2017-10-15T13:00:17.717Z,23.80
2017-10-15T13:02:44.035Z,23.80
2017-10-15T13:05:10.337Z,23.80
2017-10-15T13:07:37.714Z,23.90
2017-10-15T13:10:03.981Z,23.90
2017-10-15T13:12:30.268Z,24.00
2017-10-15T13:14:57.327Z,24.00
2017-10-15T13:17:23.604Z,24.00
2017-10-15T13:19:49.984Z,24.00
2017-10-15T13:22:16.275Z,24.00
2017-10-15T13:24:43.322Z,24.10
2017-10-15T13:27:10.402Z,24.10
2017-10-15T13:29:36.664Z,24.10
2017-10-15T13:32:03.061Z,24.20
2017-10-15T13:34:29.337Z,24.20
2017-10-15T13:36:55.637Z,24.30
2017-10-15T13:39:21.996Z,24.30
2017-10-15T13:41:48.970Z,24.40
2017-10-15T13:44:15.291Z,24.40
2017-10-15T13:46:41.606Z,24.50
2017-10-15T13:49:07.900Z,24.60
2017-10-15T13:51:34.197Z,24.70
2017-10-15T13:54:00.520Z,24.80
2017-10-15T13:56:26.860Z,24.90
2017-10-15T13:58:53.142Z,25.00
2017-10-15T14:01:20.129Z,25.20
2017-10-15T14:03:46.417Z,25.20
2017-10-15T14:06:13.491Z,25.40
2017-10-15T14:08:39.884Z,25.40
2017-10-15T14:11:06.145Z,25.60
2017-10-15T14:13:32.428Z,25.70
2017-10-15T14:15:58.761Z,25.80
2017-10-15T14:18:25.047Z,25.90
2017-10-15T14:20:51.411Z,25.90
2017-10-15T14:23:17.711Z,26.10
2017-10-15T14:25:44.009Z,26.20
2017-10-15T14:28:10.415Z,26.20
2017-10-15T14:30:37.447Z,26.50
2017-10-15T14:33:03.780Z,26.50
2017-10-15T14:35:30.066Z,26.60
2017-10-15T14:37:56.375Z,26.70
2017-10-15T14:40:22.745Z,26.70
2017-10-15T14:42:49.069Z,26.70
2017-10-15T14:45:15.425Z,26.80
2017-10-15T14:47:41.709Z,26.80
2017-10-15T14:50:08.334Z,26.80
2017-10-15T14:52:34.683Z,26.80
2017-10-15T14:55:00.971Z,26.80
2017-10-15T14:57:27.301Z,26.80
2017-10-15T14:59:53.559Z,26.70
2017-10-15T15:02:19.850Z,26.70
2017-10-15T15:04:46.930Z,26.40
2017-10-15T15:07:13.508Z,26.40
2017-10-15T15:09:39.800Z,26.30
2017-10-15T15:12:06.156Z,26.10
2017-10-15T15:14:32.872Z,26.00
2017-10-15T15:16:59.168Z,25.80
2017-10-15T15:19:25.520Z,25.70
2017-10-15T15:21:51.849Z,25.60
2017-10-15T15:24:18.284Z,25.40
2017-10-15T15:26:44.677Z,25.30
2017-10-15T15:29:10.996Z,25.00
2017-10-15T15:31:38.142Z,24.30
2017-10-15T15:34:04.577Z,24.30
2017-10-15T15:36:31.607Z,23.40
2017-10-15T15:38:57.913Z,23.30
2017-10-15T15:41:24.201Z,22.80
2017-10-15T15:43:50.488Z,22.20
2017-10-15T15:46:16.779Z,21.70
2017-10-15T15:48:43.091Z,21.30
2017-10-15T15:51:09.385Z,20.90
2017-10-15T15:53:36.441Z,20.30
2017-10-15T15:56:03.471Z,20.10
2017-10-15T15:58:29.768Z,20.00
2017-10-15T16:00:56.087Z,19.80
2017-10-15T16:03:22.395Z,19.60
2017-10-15T16:05:49.031Z,19.40
2017-10-15T16:08:15.315Z,19.20
2017-10-15T16:10:41.581Z,19.00
2017-10-15T16:13:07.868Z,18.80
2017-10-15T16:15:34.181Z,18.60
2017-10-15T16:18:00.506Z,18.30
2017-10-15T16:20:27.566Z,18.00
2017-10-15T16:22:54.892Z,17.80
2017-10-15T16:25:21.193Z,17.70
2017-10-15T16:27:47.508Z,17.60
2017-10-15T16:30:13.841Z,17.40
2017-10-15T16:32:40.182Z,17.30
2017-10-15T16:35:06.499Z,17.10
2017-10-15T16:37:32.779Z,16.90
2017-10-15T16:39:59.103Z,16.80
2017-10-15T16:42:26.182Z,16.50
2017-10-15T16:44:52.483Z,16.50
2017-10-15T16:47:18.820Z,16.40
2017-10-15T16:49:45.123Z,16.20
2017-10-15T16:52:11.456Z,16.20
2017-10-15T16:54:39.715Z,16.10
2017-10-15T16:57:06.393Z,16.00
2017-10-15T16:59:32.713Z,15.80
2017-10-15T17:01:59.078Z,15.70
2017-10-15T17:04:25.462Z,15.70
2017-10-15T17:06:51.825Z,15.50
2017-10-15T17:09:18.958Z,15.30
2017-10-15T17:11:46.096Z,15.20
2017-10-15T17:14:12.498Z,15.20
2017-10-15T17:16:38.845Z,15.10
2017-10-15T17:19:05.309Z,15.10
2017-10-15T17:21:32.425Z,14.90
2017-10-15T17:23:58.784Z,14.90
2017-10-15T17:26:25.936Z,14.80
2017-10-15T17:28:53.028Z,14.70
2017-10-15T17:31:19.410Z,14.60
2017-10-15T17:33:46.468Z,14.60
2017-10-15T17:36:12.907Z,14.50
2017-10-15T17:38:39.285Z,14.50
2017-10-15T17:41:05.684Z,14.40
2017-10-15T17:43:32.079Z,14.40
2017-10-15T17:45:59.207Z,14.20
2017-10-15T17:48:25.534Z,14.20
2017-10-15T17:50:51.969Z,14.20
2017-10-15T17:53:18.326Z,14.20
2017-10-15T17:55:45.417Z,14.00
2017-10-15T17:58:11.857Z,14.00
2017-10-15T18:00:38.294Z,14.00
2017-10-15T18:03:04.651Z,13.90
2017-10-15T18:05:31.738Z,13.70
2017-10-15T18:07:58.379Z,13.70
2017-10-15T18:10:24.661Z,13.70
2017-10-15T18:12:51.737Z,13.60
2017-10-15T18:15:18.187Z,13.60
2017-10-15T18:17:44.515Z,13.50
2017-10-15T18:20:11.016Z,13.50
2017-10-15T18:22:37.522Z,13.40
2017-10-15T18:25:03.925Z,13.30
2017-10-15T18:27:30.430Z,13.30
2017-10-15T18:29:56.832Z,13.20
2017-10-15T18:32:23.333Z,13.10
2017-10-15T18:34:49.700Z,13.10
2017-10-15T18:37:16.137Z,13.00
2017-10-15T18:39:42.566Z,13.00
2017-10-15T18:42:08.995Z,12.90
2017-10-15T18:44:35.495Z,12.90
2017-10-15T18:47:01.946Z,12.80
2017-10-15T18:49:29.128Z,12.70
2017-10-15T18:51:56.550Z,12.70
2017-10-15T18:54:23.728Z,12.60
2017-10-15T18:56:50.148Z,12.60
2017-10-15T18:59:16.621Z,12.60
2017-10-15T19:01:43.060Z,12.60
2017-10-15T19:04:09.520Z,12.50
2017-10-15T19:06:36.668Z,12.40
2017-10-15T19:09:03.899Z,12.30
2017-10-15T19:11:30.547Z,12.40
2017-10-15T19:13:56.991Z,12.30
2017-10-15T19:16:23.401Z,12.30
2017-10-15T19:18:49.982Z,12.30
2017-10-15T19:21:16.416Z,12.30
2017-10-15T19:23:43.184Z,12.40
2017-10-15T19:26:09.594Z,12.40
2017-10-15T19:28:36.001Z,12.40
2017-10-15T19:31:02.444Z,12.30
2017-10-15T19:33:28.873Z,12.20
2017-10-15T19:35:55.310Z,12.20
2017-10-15T19:38:21.694Z,12.10
2017-10-15T19:40:48.988Z,12.00
2017-10-15T19:43:15.394Z,12.00
2017-10-15T19:45:42.564Z,12.00
2017-10-15T19:48:08.988Z,11.90
2017-10-15T19:50:35.413Z,11.90
2017-10-15T19:53:03.509Z,11.80
2017-10-15T19:55:29.917Z,11.80
2017-10-15T19:57:57.099Z,11.70
2017-10-15T20:00:23.577Z,11.70
2017-10-15T20:02:50.955Z,11.70
2017-10-15T20:05:17.367Z,11.60
2017-10-15T20:07:44.437Z,11.60
2017-10-15T20:10:11.681Z,11.60
2017-10-15T20:12:37.992Z,11.50
2017-10-15T20:15:05.149Z,11.50
2017-10-15T20:17:32.310Z,11.50
2017-10-15T20:19:59.435Z,11.40
2017-10-15T20:22:25.849Z,11.40
2017-10-15T20:24:52.213Z,11.40
2017-10-15T20:27:18.612Z,11.40
2017-10-15T20:29:45.014Z,11.40
2017-10-15T20:32:11.367Z,11.40
2017-10-15T20:34:37.779Z,11.30
2017-10-15T20:37:04.154Z,11.40
2017-10-15T20:39:31.266Z,11.30
2017-10-15T20:41:57.632Z,11.30
2017-10-15T20:44:24.809Z,11.30
2017-10-15T20:46:51.136Z,11.30
2017-10-15T20:49:17.510Z,11.30
2017-10-15T20:51:43.842Z,11.20
2017-10-15T20:54:10.178Z,11.20
2017-10-15T20:56:36.596Z,11.20
2017-10-15T20:59:02.935Z,11.20
2017-10-15T21:01:29.315Z,11.20
2017-10-15T21:03:55.624Z,11.10
2017-10-15T21:06:22.274Z,11.10
2017-10-15T21:08:48.619Z,11.10
2017-10-15T21:11:14.934Z,11.00
2017-10-15T21:13:41.260Z,11.00
2017-10-15T21:16:07.524Z,11.00
2017-10-15T21:18:33.874Z,10.90
2017-10-15T21:21:00.929Z,10.90
2017-10-15T21:23:27.186Z,10.90
2017-10-15T21:25:53.530Z,10.90
2017-10-15T21:28:19.857Z,10.80
2017-10-15T21:30:46.152Z,10.80
2017-10-15T21:33:13.245Z,10.80
2017-10-15T21:35:39.557Z,10.70
2017-10-15T21:38:05.893Z,10.70
2017-10-15T21:40:32.218Z,10.70
2017-10-15T21:42:58.601Z,10.60
2017-10-15T21:45:24.944Z,10.60
2017-10-15T21:47:52.018Z,10.60
2017-10-15T21:50:18.323Z,10.60
2017-10-15T21:52:45.708Z,10.50
2017-10-15T21:55:12.045Z,10.50
2017-10-15T21:57:39.158Z,10.50
2017-10-15T22:00:06.262Z,10.50
2017-10-15T22:02:32.566Z,10.50
2017-10-15T22:04:58.899Z,10.50
2017-10-15T22:07:25.225Z,10.40
2017-10-15T22:09:51.553Z,10.40
2017-10-15T22:12:17.908Z,10.40
2017-10-15T22:14:44.243Z,10.40
2017-10-15T22:17:10.536Z,10.30
2017-10-15T22:19:36.905Z,10.40
2017-10-15T22:22:09.238Z,10.40
2017-10-15T22:24:35.620Z,10.30
2017-10-15T22:27:02.701Z,10.30
2017-10-15T22:29:29.043Z,10.30
2017-10-15T22:31:55.318Z,10.20
2017-10-15T22:34:21.596Z,10.20
2017-10-15T22:36:47.907Z,10.20
2017-10-15T22:39:14.257Z,10.20
2017-10-15T22:41:40.578Z,10.20
2017-10-15T22:44:06.906Z,10.20
2017-10-15T22:46:33.228Z,10.10
2017-10-15T22:49:00.286Z,10.20
2017-10-15T22:51:27.337Z,10.20
2017-10-15T22:53:53.646Z,10.20
2017-10-15T22:56:19.874Z,10.20
2017-10-15T22:58:46.178Z,10.10
2017-10-15T23:01:12.542Z,10.10
2017-10-15T23:03:38.910Z,10.10
2017-10-15T23:06:05.231Z,10.10
2017-10-15T23:08:31.559Z,10.10
2017-10-15T23:10:57.849Z,10.00
2017-10-15T23:13:24.152Z,10.00
2017-10-15T23:15:50.457Z,10.00
2017-10-15T23:18:17.626Z,10.00
2017-10-15T23:20:43.942Z,9.90
2017-10-15T23:23:10.231Z,10.00
2017-10-15T23:25:36.532Z,9.90
2017-10-15T23:28:02.841Z,9.90
2017-10-15T23:30:29.171Z,9.90
2017-10-15T23:32:56.235Z,9.90
2017-10-15T23:35:22.529Z,9.90
2017-10-15T23:37:48.861Z,9.80
2017-10-15T23:40:15.147Z,9.80
2017-10-15T23:42:41.465Z,9.80
2017-10-15T23:45:07.830Z,9.80
2017-10-15T23:47:34.102Z,9.70
2017-10-15T23:50:00.387Z,9.70
2017-10-15T23:52:26.706Z,9.70
2017-10-15T23:54:53.031Z,9.60
2017-10-15T23:57:19.369Z,9.60
2017-10-15T23:59:45.667Z,9.70
